Terminal Aerodrome Forecast
Issued by NWS Sioux Falls, SD

Home | Current Version | Previous Version | Graphics & Text | Print | Product List | Glossary On
Versions: 1 2 3 4 5 6 7 8 9 10 11 12
249
FTUS43 KFSD 251120
TAFFSD
TAF
KFSD 251120Z 2512/2612 31006KT P6SM SCT150
     FM251700 31011KT P6SM FEW150
     FM260100 VRB05KT P6SM FEW150=

USA.gov is the U.S. government's official web portal to all federal, state and local government web resources and services.